sensor_id;sensor_type;location;lat;lon;timestamp;P1;durP1;ratioP1;P2;durP2;ratioP2
9884;SDS011;4981;50.966;4.842;2024-03-02T00:00:50;9.77;;;5.03;;
9884;SDS011;4981;50.966;4.842;2024-03-02T00:03:18;16.70;;;9.27;;
9884;SDS011;4981;50.966;4.842;2024-03-02T00:05:48;22.37;;;10.47;;
9884;SDS011;4981;50.966;4.842;2024-03-02T00:08:18;14.97;;;7.63;;
9884;SDS011;4981;50.966;4.842;2024-03-02T00:10:49;4.90;;;4.13;;
9884;SDS011;4981;50.966;4.842;2024-03-02T00:13:18;1.97;;;0.70;;
9884;SDS011;4981;50.966;4.842;2024-03-02T00:15:47;4.77;;;3.47;;
9884;SDS011;4981;50.966;4.842;2024-03-02T00:18:18;1.17;;;0.60;;
9884;SDS011;4981;50.966;4.842;2024-03-02T00:20:46;2.07;;;1.90;;
9884;SDS011;4981;50.966;4.842;2024-03-02T00:23:14;6.17;;;4.27;;
9884;SDS011;4981;50.966;4.842;2024-03-02T00:25:43;1.20;;;0.70;;
9884;SDS011;4981;50.966;4.842;2024-03-02T00:28:13;2.23;;;1.97;;
9884;SDS011;4981;50.966;4.842;2024-03-02T00:33:33;5.63;;;4.33;;
9884;SDS011;4981;50.966;4.842;2024-03-02T00:36:01;4.30;;;3.57;;
9884;SDS011;4981;50.966;4.842;2024-03-02T00:38:30;2.57;;;2.23;;
9884;SDS011;4981;50.966;4.842;2024-03-02T00:40:58;1.43;;;1.33;;
9884;SDS011;4981;50.966;4.842;2024-03-02T00:43:37;0.60;;;0.60;;
9884;SDS011;4981;50.966;4.842;2024-03-02T00:46:09;0.40;;;0.40;;
9884;SDS011;4981;50.966;4.842;2024-03-02T00:48:44;1.30;;;0.70;;
9884;SDS011;4981;50.966;4.842;2024-03-02T00:51:17;1.43;;;0.70;;
9884;SDS011;4981;50.966;4.842;2024-03-02T00:53:44;0.50;;;0.40;;
9884;SDS011;4981;50.966;4.842;2024-03-02T00:56:11;3.43;;;2.13;;
9884;SDS011;4981;50.966;4.842;2024-03-02T00:58:39;0.50;;;0.40;;
9884;SDS011;4981;50.966;4.842;2024-03-02T01:01:06;6.17;;;3.53;;
9884;SDS011;4981;50.966;4.842;2024-03-02T01:03:34;9.00;;;4.87;;
9884;SDS011;4981;50.966;4.842;2024-03-02T01:06:02;6.30;;;5.57;;
9884;SDS011;4981;50.966;4.842;2024-03-02T01:08:30;7.33;;;4.77;;
9884;SDS011;4981;50.966;4.842;2024-03-02T01:10:57;3.63;;;2.27;;
9884;SDS011;4981;50.966;4.842;2024-03-02T01:13:24;10.50;;;4.20;;
9884;SDS011;4981;50.966;4.842;2024-03-02T01:15:51;6.10;;;5.33;;
9884;SDS011;4981;50.966;4.842;2024-03-02T01:18:18;7.37;;;5.00;;
9884;SDS011;4981;50.966;4.842;2024-03-02T01:20:47;16.70;;;7.53;;
9884;SDS011;4981;50.966;4.842;2024-03-02T01:23:16;19.93;;;9.40;;
9884;SDS011;4981;50.966;4.842;2024-03-02T01:25:44;7.60;;;3.57;;
9884;SDS011;4981;50.966;4.842;2024-03-02T01:28:12;23.67;;;18.90;;
9884;SDS011;4981;50.966;4.842;2024-03-02T01:30:39;5.87;;;3.97;;
9884;SDS011;4981;50.966;4.842;2024-03-02T01:33:06;7.30;;;4.23;;
9884;SDS011;4981;50.966;4.842;2024-03-02T01:35:34;18.37;;;11.03;;
9884;SDS011;4981;50.966;4.842;2024-03-02T01:38:04;19.83;;;9.73;;
9884;SDS011;4981;50.966;4.842;2024-03-02T01:40:32;19.20;;;8.63;;
9884;SDS011;4981;50.966;4.842;2024-03-02T01:43:00;4.83;;;3.90;;
9884;SDS011;4981;50.966;4.842;2024-03-02T01:45:27;9.23;;;4.63;;
9884;SDS011;4981;50.966;4.842;2024-03-02T01:47:54;6.53;;;5.47;;
9884;SDS011;4981;50.966;4.842;2024-03-02T01:50:25;8.97;;;5.73;;
9884;SDS011;4981;50.966;4.842;2024-03-02T01:52:54;38.03;;;16.70;;
9884;SDS011;4981;50.966;4.842;2024-03-02T01:55:22;18.90;;;8.30;;
9884;SDS011;4981;50.966;4.842;2024-03-02T01:57:50;13.10;;;6.30;;
9884;SDS011;4981;50.966;4.842;2024-03-02T02:00:19;7.33;;;4.47;;
9884;SDS011;4981;50.966;4.842;2024-03-02T02:02:47;5.20;;;2.83;;
9884;SDS011;4981;50.966;4.842;2024-03-02T02:05:15;10.20;;;5.03;;
9884;SDS011;4981;50.966;4.842;2024-03-02T02:07:42;16.80;;;6.77;;
9884;SDS011;4981;50.966;4.842;2024-03-02T02:10:09;3.57;;;3.27;;
9884;SDS011;4981;50.966;4.842;2024-03-02T02:12:38;1.37;;;1.27;;
9884;SDS011;4981;50.966;4.842;2024-03-02T02:17:48;15.03;;;6.93;;
9884;SDS011;4981;50.966;4.842;2024-03-02T02:20:15;18.83;;;7.90;;
9884;SDS011;4981;50.966;4.842;2024-03-02T02:22:53;45.30;;;39.30;;
9884;SDS011;4981;50.966;4.842;2024-03-02T02:25:21;38.60;;;22.37;;
9884;SDS011;4981;50.966;4.842;2024-03-02T02:27:48;33.60;;;16.23;;
9884;SDS011;4981;50.966;4.842;2024-03-02T02:30:18;28.60;;;12.70;;
9884;SDS011;4981;50.966;4.842;2024-03-02T02:32:46;24.97;;;10.90;;
9884;SDS011;4981;50.966;4.842;2024-03-02T02:35:13;6.33;;;3.33;;
9884;SDS011;4981;50.966;4.842;2024-03-02T02:37:40;12.43;;;5.67;;
9884;SDS011;4981;50.966;4.842;2024-03-02T02:40:09;49.80;;;28.57;;
9884;SDS011;4981;50.966;4.842;2024-03-02T02:42:37;54.53;;;28.43;;
9884;SDS011;4981;50.966;4.842;2024-03-02T02:45:05;16.03;;;8.07;;
9884;SDS011;4981;50.966;4.842;2024-03-02T02:47:32;25.27;;;13.47;;
9884;SDS011;4981;50.966;4.842;2024-03-02T02:50:00;9.90;;;4.80;;
9884;SDS011;4981;50.966;4.842;2024-03-02T02:52:30;6.80;;;3.37;;
9884;SDS011;4981;50.966;4.842;2024-03-02T02:55:01;31.17;;;13.67;;
9884;SDS011;4981;50.966;4.842;2024-03-02T02:57:31;68.87;;;32.37;;
9884;SDS011;4981;50.966;4.842;2024-03-02T03:00:01;4.20;;;2.10;;
9884;SDS011;4981;50.966;4.842;2024-03-02T03:02:35;21.17;;;10.83;;
9884;SDS011;4981;50.966;4.842;2024-03-02T03:05:07;34.00;;;14.67;;
9884;SDS011;4981;50.966;4.842;2024-03-02T03:07:34;19.90;;;11.43;;
9884;SDS011;4981;50.966;4.842;2024-03-02T03:10:01;32.47;;;17.03;;
9884;SDS011;4981;50.966;4.842;2024-03-02T03:12:30;16.13;;;8.33;;
9884;SDS011;4981;50.966;4.842;2024-03-02T03:14:57;6.83;;;3.80;;
9884;SDS011;4981;50.966;4.842;2024-03-02T03:17:24;69.90;;;31.90;;
9884;SDS011;4981;50.966;4.842;2024-03-02T03:19:52;14.10;;;5.83;;
9884;SDS011;4981;50.966;4.842;2024-03-02T03:22:19;5.60;;;3.57;;
9884;SDS011;4981;50.966;4.842;2024-03-02T03:24:46;23.97;;;10.17;;
9884;SDS011;4981;50.966;4.842;2024-03-02T03:27:13;62.83;;;38.87;;
9884;SDS011;4981;50.966;4.842;2024-03-02T03:29:42;19.43;;;8.83;;
9884;SDS011;4981;50.966;4.842;2024-03-02T03:32:09;0.73;;;0.60;;
9884;SDS011;4981;50.966;4.842;2024-03-02T03:34:36;4.47;;;2.20;;
9884;SDS011;4981;50.966;4.842;2024-03-02T03:37:03;2.37;;;0.63;;
9884;SDS011;4981;50.966;4.842;2024-03-02T03:39:30;20.27;;;12.90;;
9884;SDS011;4981;50.966;4.842;2024-03-02T03:41:57;7.57;;;4.30;;
9884;SDS011;4981;50.966;4.842;2024-03-02T03:44:24;2.50;;;1.40;;
9884;SDS011;4981;50.966;4.842;2024-03-02T03:46:53;0.87;;;0.40;;
9884;SDS011;4981;50.966;4.842;2024-03-02T03:49:19;0.57;;;0.30;;
9884;SDS011;4981;50.966;4.842;2024-03-02T03:51:46;0.83;;;0.40;;
9884;SDS011;4981;50.966;4.842;2024-03-02T03:54:14;10.33;;;4.83;;
9884;SDS011;4981;50.966;4.842;2024-03-02T03:56:41;12.13;;;8.00;;
9884;SDS011;4981;50.966;4.842;2024-03-02T03:59:08;4.43;;;2.43;;
9884;SDS011;4981;50.966;4.842;2024-03-02T04:01:35;3.60;;;2.73;;
9884;SDS011;4981;50.966;4.842;2024-03-02T04:04:03;19.60;;;9.07;;
9884;SDS011;4981;50.966;4.842;2024-03-02T04:06:30;11.23;;;5.33;;
9884;SDS011;4981;50.966;4.842;2024-03-02T04:08:58;6.83;;;4.13;;
9884;SDS011;4981;50.966;4.842;2024-03-02T04:11:24;15.27;;;6.40;;
9884;SDS011;4981;50.966;4.842;2024-03-02T04:13:51;25.17;;;11.27;;
9884;SDS011;4981;50.966;4.842;2024-03-02T04:16:18;54.60;;;29.37;;
9884;SDS011;4981;50.966;4.842;2024-03-02T04:18:46;16.70;;;7.40;;
9884;SDS011;4981;50.966;4.842;2024-03-02T04:21:14;46.57;;;18.43;;
9884;SDS011;4981;50.966;4.842;2024-03-02T04:23:41;33.07;;;13.70;;
9884;SDS011;4981;50.966;4.842;2024-03-02T04:26:08;15.50;;;6.53;;
9884;SDS011;4981;50.966;4.842;2024-03-02T04:28:35;9.03;;;4.83;;
9884;SDS011;4981;50.966;4.842;2024-03-02T04:31:02;32.50;;;15.03;;
9884;SDS011;4981;50.966;4.842;2024-03-02T04:33:29;5.83;;;3.63;;
9884;SDS011;4981;50.966;4.842;2024-03-02T04:35:56;25.03;;;10.87;;
9884;SDS011;4981;50.966;4.842;2024-03-02T04:38:25;95.63;;;51.30;;
9884;SDS011;4981;50.966;4.842;2024-03-02T04:40:52;34.53;;;15.13;;
9884;SDS011;4981;50.966;4.842;2024-03-02T04:43:19;27.00;;;13.60;;
9884;SDS011;4981;50.966;4.842;2024-03-02T04:45:46;33.43;;;15.20;;
9884;SDS011;4981;50.966;4.842;2024-03-02T04:48:13;82.10;;;73.83;;
9884;SDS011;4981;50.966;4.842;2024-03-02T04:50:40;77.17;;;65.53;;
9884;SDS011;4981;50.966;4.842;2024-03-02T04:53:07;160.37;;;145.97;;
9884;SDS011;4981;50.966;4.842;2024-03-02T04:55:36;100.63;;;90.20;;
9884;SDS011;4981;50.966;4.842;2024-03-02T04:58:38;30.03;;;26.47;;
9884;SDS011;4981;50.966;4.842;2024-03-02T05:01:05;83.10;;;36.93;;
9884;SDS011;4981;50.966;4.842;2024-03-02T05:03:32;7.07;;;5.67;;
9884;SDS011;4981;50.966;4.842;2024-03-02T05:06:00;27.80;;;12.73;;
9884;SDS011;4981;50.966;4.842;2024-03-02T05:08:26;12.87;;;5.37;;
9884;SDS011;4981;50.966;4.842;2024-03-02T05:10:55;5.87;;;4.77;;
9884;SDS011;4981;50.966;4.842;2024-03-02T05:13:42;6.60;;;4.17;;
9884;SDS011;4981;50.966;4.842;2024-03-02T05:16:09;9.10;;;5.33;;
9884;SDS011;4981;50.966;4.842;2024-03-02T05:18:37;7.80;;;4.77;;
9884;SDS011;4981;50.966;4.842;2024-03-02T05:21:04;20.80;;;10.30;;
9884;SDS011;4981;50.966;4.842;2024-03-02T05:23:31;23.43;;;16.47;;
9884;SDS011;4981;50.966;4.842;2024-03-02T05:25:59;42.50;;;32.33;;
9884;SDS011;4981;50.966;4.842;2024-03-02T05:28:26;14.07;;;7.03;;
9884;SDS011;4981;50.966;4.842;2024-03-02T05:30:53;10.67;;;5.47;;
9884;SDS011;4981;50.966;4.842;2024-03-02T05:33:21;5.03;;;3.33;;
9884;SDS011;4981;50.966;4.842;2024-03-02T05:35:48;3.07;;;1.80;;
9884;SDS011;4981;50.966;4.842;2024-03-02T05:38:16;1.13;;;0.50;;
9884;SDS011;4981;50.966;4.842;2024-03-02T05:40:42;1.93;;;0.67;;
9884;SDS011;4981;50.966;4.842;2024-03-02T05:43:11;1.10;;;0.53;;
9884;SDS011;4981;50.966;4.842;2024-03-02T05:45:38;2.23;;;0.80;;
9884;SDS011;4981;50.966;4.842;2024-03-02T05:48:06;3.43;;;1.07;;
9884;SDS011;4981;50.966;4.842;2024-03-02T05:50:34;1.37;;;0.73;;
9884;SDS011;4981;50.966;4.842;2024-03-02T05:53:01;2.00;;;1.00;;
9884;SDS011;4981;50.966;4.842;2024-03-02T05:55:28;8.03;;;4.80;;
9884;SDS011;4981;50.966;4.842;2024-03-02T05:57:56;6.53;;;3.23;;
9884;SDS011;4981;50.966;4.842;2024-03-02T06:00:42;12.90;;;7.53;;
9884;SDS011;4981;50.966;4.842;2024-03-02T06:03:09;4.53;;;3.50;;
9884;SDS011;4981;50.966;4.842;2024-03-02T06:05:35;3.67;;;2.07;;
9884;SDS011;4981;50.966;4.842;2024-03-02T06:08:03;6.53;;;3.13;;
9884;SDS011;4981;50.966;4.842;2024-03-02T06:10:30;8.60;;;5.13;;
9884;SDS011;4981;50.966;4.842;2024-03-02T06:12:57;5.27;;;3.30;;
9884;SDS011;4981;50.966;4.842;2024-03-02T06:15:24;5.87;;;3.20;;
9884;SDS011;4981;50.966;4.842;2024-03-02T06:17:53;3.97;;;1.57;;
9884;SDS011;4981;50.966;4.842;2024-03-02T06:20:20;2.87;;;2.20;;
9884;SDS011;4981;50.966;4.842;2024-03-02T06:22:47;10.77;;;4.00;;
9884;SDS011;4981;50.966;4.842;2024-03-02T06:25:14;8.63;;;4.77;;
9884;SDS011;4981;50.966;4.842;2024-03-02T06:27:41;13.13;;;5.03;;
9884;SDS011;4981;50.966;4.842;2024-03-02T06:30:08;12.57;;;4.87;;
9884;SDS011;4981;50.966;4.842;2024-03-02T06:32:36;19.57;;;9.80;;
9884;SDS011;4981;50.966;4.842;2024-03-02T06:35:04;29.80;;;15.57;;
9884;SDS011;4981;50.966;4.842;2024-03-02T06:37:35;106.43;;;95.00;;
9884;SDS011;4981;50.966;4.842;2024-03-02T06:40:02;34.70;;;22.33;;
9884;SDS011;4981;50.966;4.842;2024-03-02T06:42:32;47.77;;;38.83;;
9884;SDS011;4981;50.966;4.842;2024-03-02T06:44:59;16.97;;;7.57;;
9884;SDS011;4981;50.966;4.842;2024-03-02T06:47:26;17.43;;;9.40;;
9884;SDS011;4981;50.966;4.842;2024-03-02T06:49:53;54.43;;;45.63;;
9884;SDS011;4981;50.966;4.842;2024-03-02T06:52:21;50.90;;;43.70;;
9884;SDS011;4981;50.966;4.842;2024-03-02T06:54:48;131.83;;;118.33;;
9884;SDS011;4981;50.966;4.842;2024-03-02T06:57:15;111.93;;;100.90;;
9884;SDS011;4981;50.966;4.842;2024-03-02T06:59:42;167.33;;;149.63;;
9884;SDS011;4981;50.966;4.842;2024-03-02T07:02:09;8.70;;;4.67;;
9884;SDS011;4981;50.966;4.842;2024-03-02T07:04:37;15.00;;;6.80;;
9884;SDS011;4981;50.966;4.842;2024-03-02T07:07:04;18.53;;;9.13;;
9884;SDS011;4981;50.966;4.842;2024-03-02T07:09:32;12.70;;;6.33;;
9884;SDS011;4981;50.966;4.842;2024-03-02T07:12:00;17.57;;;9.33;;
9884;SDS011;4981;50.966;4.842;2024-03-02T07:14:27;8.00;;;4.30;;
9884;SDS011;4981;50.966;4.842;2024-03-02T07:17:08;7.83;;;4.93;;
9884;SDS011;4981;50.966;4.842;2024-03-02T07:19:35;2.20;;;2.00;;
9884;SDS011;4981;50.966;4.842;2024-03-02T07:22:05;17.40;;;7.70;;
9884;SDS011;4981;50.966;4.842;2024-03-02T07:24:40;4.80;;;3.33;;
9884;SDS011;4981;50.966;4.842;2024-03-02T07:27:07;3.63;;;3.33;;
9884;SDS011;4981;50.966;4.842;2024-03-02T07:29:34;5.53;;;3.80;;
9884;SDS011;4981;50.966;4.842;2024-03-02T07:32:02;3.20;;;2.07;;
9884;SDS011;4981;50.966;4.842;2024-03-02T07:34:29;7.70;;;3.73;;
9884;SDS011;4981;50.966;4.842;2024-03-02T07:36:56;7.73;;;5.60;;
9884;SDS011;4981;50.966;4.842;2024-03-02T07:39:24;1.80;;;1.40;;
9884;SDS011;4981;50.966;4.842;2024-03-02T07:41:52;4.13;;;1.30;;
9884;SDS011;4981;50.966;4.842;2024-03-02T07:44:20;3.03;;;0.77;;
9884;SDS011;4981;50.966;4.842;2024-03-02T07:46:47;3.83;;;1.80;;
9884;SDS011;4981;50.966;4.842;2024-03-02T07:49:16;3.83;;;2.07;;
9884;SDS011;4981;50.966;4.842;2024-03-02T07:51:43;2.83;;;1.00;;
9884;SDS011;4981;50.966;4.842;2024-03-02T07:54:10;3.33;;;0.80;;
9884;SDS011;4981;50.966;4.842;2024-03-02T07:56:37;4.70;;;3.10;;
9884;SDS011;4981;50.966;4.842;2024-03-02T07:59:06;3.33;;;1.10;;
9884;SDS011;4981;50.966;4.842;2024-03-02T08:01:33;10.60;;;9.40;;
9884;SDS011;4981;50.966;4.842;2024-03-02T08:04:01;5.27;;;2.30;;
9884;SDS011;4981;50.966;4.842;2024-03-02T08:06:28;5.53;;;4.00;;
9884;SDS011;4981;50.966;4.842;2024-03-02T08:08:56;11.10;;;9.97;;
9884;SDS011;4981;50.966;4.842;2024-03-02T08:11:24;1.90;;;1.80;;
9884;SDS011;4981;50.966;4.842;2024-03-02T08:13:52;5.90;;;4.47;;
9884;SDS011;4981;50.966;4.842;2024-03-02T08:16:21;8.37;;;4.97;;
9884;SDS011;4981;50.966;4.842;2024-03-02T08:18:50;3.37;;;0.87;;
9884;SDS011;4981;50.966;4.842;2024-03-02T08:21:17;2.50;;;1.27;;
9884;SDS011;4981;50.966;4.842;2024-03-02T08:23:44;3.37;;;3.07;;
9884;SDS011;4981;50.966;4.842;2024-03-02T08:26:11;4.10;;;2.33;;
9884;SDS011;4981;50.966;4.842;2024-03-02T08:28:38;0.77;;;0.70;;
9884;SDS011;4981;50.966;4.842;2024-03-02T08:31:06;4.53;;;1.50;;
9884;SDS011;4981;50.966;4.842;2024-03-02T08:33:35;1.40;;;1.30;;
9884;SDS011;4981;50.966;4.842;2024-03-02T08:36:02;1.60;;;1.20;;
9884;SDS011;4981;50.966;4.842;2024-03-02T08:38:30;6.33;;;1.67;;
9884;SDS011;4981;50.966;4.842;2024-03-02T08:40:57;2.20;;;1.37;;
9884;SDS011;4981;50.966;4.842;2024-03-02T08:43:24;3.77;;;1.30;;
9884;SDS011;4981;50.966;4.842;2024-03-02T08:45:51;6.13;;;4.27;;
9884;SDS011;4981;50.966;4.842;2024-03-02T08:48:18;4.10;;;3.77;;
9884;SDS011;4981;50.966;4.842;2024-03-02T08:50:47;4.30;;;4.07;;
9884;SDS011;4981;50.966;4.842;2024-03-02T08:53:14;2.53;;;2.00;;
9884;SDS011;4981;50.966;4.842;2024-03-02T08:55:43;1.13;;;0.83;;
9884;SDS011;4981;50.966;4.842;2024-03-02T08:58:10;2.23;;;1.00;;
9884;SDS011;4981;50.966;4.842;2024-03-02T09:00:37;1.40;;;0.63;;
9884;SDS011;4981;50.966;4.842;2024-03-02T09:03:04;0.60;;;0.50;;
9884;SDS011;4981;50.966;4.842;2024-03-02T09:05:31;5.27;;;1.37;;
9884;SDS011;4981;50.966;4.842;2024-03-02T09:08:00;5.03;;;2.60;;
9884;SDS011;4981;50.966;4.842;2024-03-02T09:10:28;27.43;;;13.00;;
9884;SDS011;4981;50.966;4.842;2024-03-02T09:12:55;2.00;;;1.43;;
9884;SDS011;4981;50.966;4.842;2024-03-02T09:15:22;2.53;;;2.33;;
9884;SDS011;4981;50.966;4.842;2024-03-02T09:17:49;4.80;;;1.90;;
9884;SDS011;4981;50.966;4.842;2024-03-02T09:20:16;2.57;;;0.73;;
9884;SDS011;4981;50.966;4.842;2024-03-02T09:22:43;1.63;;;0.70;;
9884;SDS011;4981;50.966;4.842;2024-03-02T09:25:13;4.80;;;1.83;;
9884;SDS011;4981;50.966;4.842;2024-03-02T09:27:41;3.20;;;1.23;;
9884;SDS011;4981;50.966;4.842;2024-03-02T09:30:08;3.03;;;0.70;;
9884;SDS011;4981;50.966;4.842;2024-03-02T09:32:36;2.23;;;0.70;;
9884;SDS011;4981;50.966;4.842;2024-03-02T09:35:03;2.60;;;0.63;;
9884;SDS011;4981;50.966;4.842;2024-03-02T09:37:30;1.47;;;0.63;;
9884;SDS011;4981;50.966;4.842;2024-03-02T09:39:57;3.97;;;2.10;;
9884;SDS011;4981;50.966;4.842;2024-03-02T09:42:27;2.13;;;1.43;;
9884;SDS011;4981;50.966;4.842;2024-03-02T09:44:54;14.20;;;6.70;;
9884;SDS011;4981;50.966;4.842;2024-03-02T09:47:21;71.17;;;46.33;;
9884;SDS011;4981;50.966;4.842;2024-03-02T09:49:48;25.00;;;11.80;;
9884;SDS011;4981;50.966;4.842;2024-03-02T09:52:15;23.33;;;9.83;;
9884;SDS011;4981;50.966;4.842;2024-03-02T09:54:42;18.53;;;8.20;;
9884;SDS011;4981;50.966;4.842;2024-03-02T09:57:09;15.47;;;6.83;;
9884;SDS011;4981;50.966;4.842;2024-03-02T09:59:38;7.97;;;5.03;;
9884;SDS011;4981;50.966;4.842;2024-03-02T10:02:05;10.17;;;4.13;;
9884;SDS011;4981;50.966;4.842;2024-03-02T10:04:32;7.00;;;4.20;;
9884;SDS011;4981;50.966;4.842;2024-03-02T10:07:13;16.97;;;7.03;;
9884;SDS011;4981;50.966;4.842;2024-03-02T10:09:41;10.63;;;4.93;;
9884;SDS011;4981;50.966;4.842;2024-03-02T10:12:10;8.67;;;4.00;;
9884;SDS011;4981;50.966;4.842;2024-03-02T10:14:39;9.50;;;4.57;;
9884;SDS011;4981;50.966;4.842;2024-03-02T10:17:06;11.73;;;5.43;;
9884;SDS011;4981;50.966;4.842;2024-03-02T10:19:34;7.50;;;3.43;;
9884;SDS011;4981;50.966;4.842;2024-03-02T10:22:03;14.23;;;7.63;;
9884;SDS011;4981;50.966;4.842;2024-03-02T10:24:34;7.13;;;3.77;;
9884;SDS011;4981;50.966;4.842;2024-03-02T10:27:06;20.33;;;9.37;;
9884;SDS011;4981;50.966;4.842;2024-03-02T10:29:36;4.17;;;1.87;;
9884;SDS011;4981;50.966;4.842;2024-03-02T10:32:06;30.00;;;17.57;;
9884;SDS011;4981;50.966;4.842;2024-03-02T10:34:36;40.87;;;17.63;;
9884;SDS011;4981;50.966;4.842;2024-03-02T10:37:03;73.70;;;62.80;;
9884;SDS011;4981;50.966;4.842;2024-03-02T10:39:31;78.30;;;70.50;;
9884;SDS011;4981;50.966;4.842;2024-03-02T10:42:00;63.53;;;56.73;;
9884;SDS011;4981;50.966;4.842;2024-03-02T10:44:29;72.17;;;53.83;;
9884;SDS011;4981;50.966;4.842;2024-03-02T10:47:00;6.27;;;2.63;;
9884;SDS011;4981;50.966;4.842;2024-03-02T10:49:28;4.37;;;0.90;;
9884;SDS011;4981;50.966;4.842;2024-03-02T10:51:56;5.67;;;0.80;;
9884;SDS011;4981;50.966;4.842;2024-03-02T10:54:23;4.67;;;1.03;;
9884;SDS011;4981;50.966;4.842;2024-03-02T10:56:54;2.40;;;0.70;;
9884;SDS011;4981;50.966;4.842;2024-03-02T10:59:26;3.03;;;0.90;;
9884;SDS011;4981;50.966;4.842;2024-03-02T11:01:56;4.40;;;1.17;;
9884;SDS011;4981;50.966;4.842;2024-03-02T11:04:26;3.77;;;0.80;;
9884;SDS011;4981;50.966;4.842;2024-03-02T11:06:55;3.63;;;0.90;;
9884;SDS011;4981;50.966;4.842;2024-03-02T11:09:26;1.43;;;0.60;;
9884;SDS011;4981;50.966;4.842;2024-03-02T11:11:56;3.20;;;0.90;;
9884;SDS011;4981;50.966;4.842;2024-03-02T11:14:29;4.27;;;0.80;;
9884;SDS011;4981;50.966;4.842;2024-03-02T11:16:58;4.83;;;0.90;;
9884;SDS011;4981;50.966;4.842;2024-03-02T11:19:27;3.93;;;0.63;;
9884;SDS011;4981;50.966;4.842;2024-03-02T11:21:55;3.80;;;0.70;;
9884;SDS011;4981;50.966;4.842;2024-03-02T11:24:32;3.90;;;1.07;;
9884;SDS011;4981;50.966;4.842;2024-03-02T11:27:00;4.57;;;1.40;;
9884;SDS011;4981;50.966;4.842;2024-03-02T11:29:43;5.00;;;0.87;;
9884;SDS011;4981;50.966;4.842;2024-03-02T11:32:17;5.90;;;0.80;;
9884;SDS011;4981;50.966;4.842;2024-03-02T11:34:48;5.20;;;1.03;;
9884;SDS011;4981;50.966;4.842;2024-03-02T11:37:16;2.70;;;0.87;;
9884;SDS011;4981;50.966;4.842;2024-03-02T11:39:46;2.73;;;1.00;;
9884;SDS011;4981;50.966;4.842;2024-03-02T11:42:15;4.13;;;0.93;;
9884;SDS011;4981;50.966;4.842;2024-03-02T11:44:44;4.97;;;1.17;;
9884;SDS011;4981;50.966;4.842;2024-03-02T11:47:13;9.23;;;4.17;;
9884;SDS011;4981;50.966;4.842;2024-03-02T11:49:42;18.00;;;7.83;;
9884;SDS011;4981;50.966;4.842;2024-03-02T11:52:12;15.03;;;5.83;;
9884;SDS011;4981;50.966;4.842;2024-03-02T11:54:41;8.57;;;3.90;;
9884;SDS011;4981;50.966;4.842;2024-03-02T11:57:11;12.37;;;5.23;;
9884;SDS011;4981;50.966;4.842;2024-03-02T11:59:39;21.73;;;9.53;;
9884;SDS011;4981;50.966;4.842;2024-03-02T12:02:06;48.00;;;42.97;;
9884;SDS011;4981;50.966;4.842;2024-03-02T12:04:40;138.60;;;125.70;;
9884;SDS011;4981;50.966;4.842;2024-03-02T12:07:08;46.03;;;24.33;;
9884;SDS011;4981;50.966;4.842;2024-03-02T12:09:37;18.37;;;8.10;;
9884;SDS011;4981;50.966;4.842;2024-03-02T12:12:04;28.67;;;20.90;;
9884;SDS011;4981;50.966;4.842;2024-03-02T12:14:32;31.77;;;20.70;;
9884;SDS011;4981;50.966;4.842;2024-03-02T12:17:00;36.57;;;16.57;;
9884;SDS011;4981;50.966;4.842;2024-03-02T12:19:28;12.27;;;5.57;;
9884;SDS011;4981;50.966;4.842;2024-03-02T12:21:55;87.73;;;78.33;;
9884;SDS011;4981;50.966;4.842;2024-03-02T12:24:22;128.83;;;116.93;;
9884;SDS011;4981;50.966;4.842;2024-03-02T12:26:51;43.90;;;26.33;;
9884;SDS011;4981;50.966;4.842;2024-03-02T12:29:19;102.27;;;78.87;;
9884;SDS011;4981;50.966;4.842;2024-03-02T12:31:50;21.57;;;9.37;;
9884;SDS011;4981;50.966;4.842;2024-03-02T12:34:18;130.93;;;118.47;;
9884;SDS011;4981;50.966;4.842;2024-03-02T12:36:45;81.53;;;73.13;;
9884;SDS011;4981;50.966;4.842;2024-03-02T12:39:15;265.57;;;243.33;;
9884;SDS011;4981;50.966;4.842;2024-03-02T12:41:43;112.53;;;101.47;;
9884;SDS011;4981;50.966;4.842;2024-03-02T12:44:11;29.50;;;15.97;;
9884;SDS011;4981;50.966;4.842;2024-03-02T12:46:38;26.57;;;11.90;;
9884;SDS011;4981;50.966;4.842;2024-03-02T12:49:07;27.83;;;15.87;;
9884;SDS011;4981;50.966;4.842;2024-03-02T12:51:37;25.03;;;10.70;;
9884;SDS011;4981;50.966;4.842;2024-03-02T12:54:05;41.87;;;28.20;;
9884;SDS011;4981;50.966;4.842;2024-03-02T12:56:32;190.53;;;172.53;;
9884;SDS011;4981;50.966;4.842;2024-03-02T12:58:59;130.83;;;118.23;;
9884;SDS011;4981;50.966;4.842;2024-03-02T13:01:28;57.57;;;36.60;;
9884;SDS011;4981;50.966;4.842;2024-03-02T13:03:57;141.23;;;127.77;;
9884;SDS011;4981;50.966;4.842;2024-03-02T13:06:25;173.10;;;156.70;;
9884;SDS011;4981;50.966;4.842;2024-03-02T13:08:54;119.10;;;107.70;;
9884;SDS011;4981;50.966;4.842;2024-03-02T13:11:22;79.07;;;70.80;;
9884;SDS011;4981;50.966;4.842;2024-03-02T13:13:49;98.47;;;88.57;;
9884;SDS011;4981;50.966;4.842;2024-03-02T13:16:17;164.13;;;149.40;;
9884;SDS011;4981;50.966;4.842;2024-03-02T13:18:46;162.77;;;147.47;;
9884;SDS011;4981;50.966;4.842;2024-03-02T13:21:13;154.50;;;140.10;;
9884;SDS011;4981;50.966;4.842;2024-03-02T13:23:40;141.03;;;127.80;;
9884;SDS011;4981;50.966;4.842;2024-03-02T13:26:07;119.17;;;107.57;;
9884;SDS011;4981;50.966;4.842;2024-03-02T13:28:36;71.70;;;64.33;;
9884;SDS011;4981;50.966;4.842;2024-03-02T13:31:04;181.37;;;165.20;;
9884;SDS011;4981;50.966;4.842;2024-03-02T13:33:31;156.70;;;142.73;;
9884;SDS011;4981;50.966;4.842;2024-03-02T13:36:00;194.40;;;177.17;;
9884;SDS011;4981;50.966;4.842;2024-03-02T13:38:28;229.30;;;208.20;;
9884;SDS011;4981;50.966;4.842;2024-03-02T13:40:54;152.77;;;139.73;;
9884;SDS011;4981;50.966;4.842;2024-03-02T13:43:21;189.10;;;173.30;;
9884;SDS011;4981;50.966;4.842;2024-03-02T13:45:49;170.33;;;155.47;;
9884;SDS011;4981;50.966;4.842;2024-03-02T13:48:18;411.20;;;383.23;;
9884;SDS011;4981;50.966;4.842;2024-03-02T13:50:45;135.43;;;123.60;;
9884;SDS011;4981;50.966;4.842;2024-03-02T13:53:14;228.10;;;209.60;;
9884;SDS011;4981;50.966;4.842;2024-03-02T13:55:41;29.83;;;14.80;;
9884;SDS011;4981;50.966;4.842;2024-03-02T13:58:08;19.10;;;13.57;;
9884;SDS011;4981;50.966;4.842;2024-03-02T14:00:36;14.17;;;6.53;;
9884;SDS011;4981;50.966;4.842;2024-03-02T14:03:04;220.83;;;202.07;;
9884;SDS011;4981;50.966;4.842;2024-03-02T14:05:32;240.97;;;220.40;;
9884;SDS011;4981;50.966;4.842;2024-03-02T14:07:59;181.03;;;165.40;;
9884;SDS011;4981;50.966;4.842;2024-03-02T14:10:28;147.40;;;134.30;;
9884;SDS011;4981;50.966;4.842;2024-03-02T14:12:55;191.07;;;175.40;;
9884;SDS011;4981;50.966;4.842;2024-03-02T14:15:22;48.13;;;38.50;;
9884;SDS011;4981;50.966;4.842;2024-03-02T14:17:49;182.40;;;166.60;;
9884;SDS011;4981;50.966;4.842;2024-03-02T14:20:16;175.23;;;159.53;;
9884;SDS011;4981;50.966;4.842;2024-03-02T14:22:47;186.53;;;170.60;;
9884;SDS011;4981;50.966;4.842;2024-03-02T14:25:14;177.03;;;160.90;;
9884;SDS011;4981;50.966;4.842;2024-03-02T14:27:44;213.63;;;195.57;;
9884;SDS011;4981;50.966;4.842;2024-03-02T14:30:12;102.53;;;92.67;;
9884;SDS011;4981;50.966;4.842;2024-03-02T14:32:39;129.33;;;117.67;;
9884;SDS011;4981;50.966;4.842;2024-03-02T14:35:06;111.70;;;100.93;;
9884;SDS011;4981;50.966;4.842;2024-03-02T14:37:36;276.47;;;253.93;;
9884;SDS011;4981;50.966;4.842;2024-03-02T14:40:04;225.83;;;206.33;;
9884;SDS011;4981;50.966;4.842;2024-03-02T14:42:34;183.00;;;166.80;;
9884;SDS011;4981;50.966;4.842;2024-03-02T14:45:03;180.50;;;164.93;;
9884;SDS011;4981;50.966;4.842;2024-03-02T14:47:31;169.47;;;154.70;;
9884;SDS011;4981;50.966;4.842;2024-03-02T14:49:59;191.83;;;175.23;;
9884;SDS011;4981;50.966;4.842;2024-03-02T14:52:26;63.07;;;54.00;;
9884;SDS011;4981;50.966;4.842;2024-03-02T14:54:53;47.80;;;34.20;;
9884;SDS011;4981;50.966;4.842;2024-03-02T14:57:20;39.70;;;23.60;;
9884;SDS011;4981;50.966;4.842;2024-03-02T14:59:47;53.57;;;39.83;;
9884;SDS011;4981;50.966;4.842;2024-03-02T15:02:15;137.47;;;124.40;;
9884;SDS011;4981;50.966;4.842;2024-03-02T15:04:42;118.83;;;107.23;;
9884;SDS011;4981;50.966;4.842;2024-03-02T15:07:10;104.00;;;94.00;;
9884;SDS011;4981;50.966;4.842;2024-03-02T15:09:37;167.00;;;150.03;;